Weather reports worldwide

Advertisment
Tarifa, Spain (8458): temperature & dewpoint: 04.12.2018 10:00:00 - 10.12.2018 10:00:00 (CET)Tarifa, Spain (8458): wind speed & gusts: 04.12.2018 10:00:00 - 10.12.2018 10:00:00 (CET)Tarifa, Spain (8458): wind direction: 04.12.2018 10:00:00 - 10.12.2018 10:00:00 (CET)Tarifa, Spain (8458): precipitation: 04.12.2018 10:00:00 - 10.12.2018 10:00:00 (CET)
Date & Time tt [°C] td [°C] ff [km/h] ff [kn] fx [km/h] fx [kn] dd rr [mm]
10.12.2018 10:00:00 14,6 13,9 26 14 42 23 ENE 0,0
10.12.2018 09:00:00 14,1 13,7 25 13 39 21 ENE 0,0
10.12.2018 08:00:00 13,5 13,1 23 13 36 19 ENE 0,0
10.12.2018 07:00:00 13,6 13,2 22 12 37 20 ENE -
10.12.2018 06:00:00 13,7 13,3 23 12 40 21 ENE 0,0
10.12.2018 05:00:00 13,8 13,2 24 13 35 19 ENE 0,0
10.12.2018 04:00:00 14,0 13,1 21 12 41 22 E 0,0
10.12.2018 03:00:00 14,1 13,0 27 15 40 22 E 0,0
10.12.2018 02:00:00 14,0 13,3 25 14 45 24 E 0,0
10.12.2018 01:00:00 14,1 13,4 29 16 42 23 ENE -
10.12.2018 00:00:00 14,2 13,5 25 13 39 21 E 0,0
09.12.2018 23:00:00 14,4 13,7 24 13 39 21 ENE 0,0
09.12.2018 22:00:00 14,3 13,6 21 12 34 18 ENE 0,0
09.12.2018 21:00:00 14,5 13,8 21 11 31 17 E 0,0
09.12.2018 20:00:00 14,2 13,5 19 10 33 18 E 0,0
09.12.2018 19:00:00 14,4 13,5 19 11 37 20 ENE -
09.12.2018 18:00:00 14,7 13,5 24 13 - - E -
09.12.2018 17:00:00 15,3 13,2 24 13 40 22 ENE 0,0
09.12.2018 16:00:00 15,7 13,1 29 15 44 24 ENE 0,0
09.12.2018 15:00:00 16,0 13,2 28 15 46 25 ENE 0,0
09.12.2018 14:00:00 16,2 13,4 28 15 49 26 ENE 0,0
09.12.2018 13:00:00 16,3 13,3 32 17 52 28 ENE -
09.12.2018 12:00:00 16,3 13,6 28 15 47 26 ENE 0,0
09.12.2018 11:00:00 16,2 14,2 26 14 51 28 ENE 0,0
09.12.2018 10:00:00 15,7 13,4 11 6 44 24 NNE 0,0
09.12.2018 09:00:00 14,8 12,8 18 10 48 26 ENE 0,0
09.12.2018 08:00:00 14,9 13,1 23 12 44 24 NE 0,0
09.12.2018 07:00:00 15,0 12,8 24 13 41 22 ENE -
09.12.2018 06:00:00 14,9 13,0 21 11 49 27 ENE 0,0
09.12.2018 05:00:00 15,0 12,6 25 13 48 26 ENE 0,0
09.12.2018 04:00:00 14,6 12,8 16 9 44 24 NE 0,0
09.12.2018 03:00:00 14,7 13,0 15 8 37 20 ENE 0,0
09.12.2018 02:00:00 14,5 13,3 16 9 39 21 ENE 0,0
09.12.2018 01:00:00 14,6 13,4 17 9 30 16 ENE -
09.12.2018 00:00:00 14,9 13,5 16 9 32 17 ENE 0,0
08.12.2018 23:00:00 14,9 13,9 18 10 32 18 ENE 0,0
08.12.2018 22:00:00 14,7 14,0 16 9 30 16 ENE 0,0
08.12.2018 21:00:00 14,9 14,2 16 9 29 16 E 0,0
08.12.2018 20:00:00 15,6 14,1 16 8 24 13 E 0,0
08.12.2018 19:00:00 15,7 14,2 8 4 14 8 E -
08.12.2018 18:00:00 16,0 14,0 10 5 23 13 SW 0,0
08.12.2018 17:00:00 16,1 13,9 16 9 27 14 SW 0,0
08.12.2018 16:00:00 16,4 13,7 16 9 29 16 SW 0,0
08.12.2018 15:00:00 16,3 13,3 16 8 29 16 WSW 0,0
08.12.2018 14:00:00 15,3 12,2 19 10 32 18 W 0,0
08.12.2018 13:00:00 14,9 11,7 24 13 35 19 W -
08.12.2018 12:00:00 15,2 13,1 14 7 31 17 W 0,0
08.12.2018 11:00:00 14,9 13,1 14 8 21 11 W 0,0
08.12.2018 10:00:00 13,0 10,9 9 5 16 9 NW 0,0
08.12.2018 09:00:00 12,2 10,8 11 6 16 9 NW 0,0
08.12.2018 08:00:00 11,8 10,5 9 5 15 8 WNW 0,0
08.12.2018 07:00:00 12,1 10,3 11 6 18 10 WNW -
08.12.2018 06:00:00 12,3 10,8 11 6 18 10 NW 0,0
08.12.2018 05:00:00 12,2 10,3 8 4 14 8 NW 0,0
08.12.2018 04:00:00 12,0 10,0 10 5 17 9 WNW 0,0
08.12.2018 03:00:00 11,5 9,6 10 5 18 10 NNW 0,0
08.12.2018 02:00:00 13,2 11,1 12 7 23 13 WNW 0,0
08.12.2018 01:00:00 13,3 11,0 17 9 27 15 WNW -
08.12.2018 00:00:00 13,4 12,7 13 7 24 13 WNW 0,0
07.12.2018 23:00:00 13,0 12,8 13 7 23 12 WNW 0,0
07.12.2018 22:00:00 13,5 13,4 11 6 18 10 W 0,0
07.12.2018 21:00:00 14,2 13,9 14 7 42 23 W 0,0
07.12.2018 20:00:00 13,8 13,5 16 9 23 13 W 0,0
07.12.2018 19:00:00 14,6 14,3 13 7 24 13 WSW -
07.12.2018 18:00:00 14,3 13,9 15 8 26 14 WSW 0,0
07.12.2018 17:00:00 14,6 13,9 16 8 27 14 WSW 0,0
07.12.2018 16:00:00 14,7 13,9 16 8 24 13 W 0,0
07.12.2018 15:00:00 14,8 13,9 13 7 23 12 WSW 0,0
07.12.2018 14:00:00 15,2 13,6 13 7 21 11 W 0,0
07.12.2018 13:00:00 16,1 14,1 5 3 17 9 S -
07.12.2018 12:00:00 15,5 13,6 11 6 36 19 E 0,0
07.12.2018 11:00:00 14,9 13,7 12 6 22 12 E 0,0
07.12.2018 10:00:00 13,8 13,4 11 6 21 11 ENE 0,0
07.12.2018 09:00:00 12,8 12,5 10 6 18 10 ENE 0,0
07.12.2018 08:00:00 12,3 12,0 10 5 20 11 ENE 0,0
07.12.2018 07:00:00 12,5 12,2 10 6 24 13 NE -
07.12.2018 06:00:00 13,1 12,7 14 8 26 14 ENE 0,0
07.12.2018 05:00:00 13,0 12,8 13 7 22 12 ENE 0,0
07.12.2018 04:00:00 12,8 12,5 13 7 26 14 NE 0,0
07.12.2018 03:00:00 13,0 12,6 13 7 31 17 ENE 0,0
07.12.2018 02:00:00 12,9 12,6 20 11 29 16 E 0,0
07.12.2018 01:00:00 13,1 12,7 18 10 26 14 E -
07.12.2018 00:00:00 14,0 13,7 15 8 23 13 E 0,0
06.12.2018 23:00:00 13,4 13,1 10 5 15 8 ENE 0,0
06.12.2018 22:00:00 13,7 13,4 10 6 14 7 E 0,0
06.12.2018 21:00:00 12,6 12,3 5 3 9 5 NNE 0,0
06.12.2018 20:00:00 13,6 13,3 7 4 9 5 N 0,0
06.12.2018 19:00:00 14,7 14,0 5 3 6 3 N -
06.12.2018 18:00:00 16,5 15,5 5 3 12 6 WNW 0,0
06.12.2018 17:00:00 17,7 15,2 7 4 13 7 W 0,0
06.12.2018 16:00:00 - - 4 2 10 5 W 0,0
06.12.2018 15:00:00 17,4 16,0 4 2 21 12 ENE 0,0
06.12.2018 14:00:00 17,0 15,5 4 2 19 11 E 0,0
06.12.2018 13:00:00 17,1 15,6 16 8 27 15 E -
06.12.2018 12:00:00 16,4 13,5 21 11 29 15 E 0,0
06.12.2018 11:00:00 16,3 13,8 9 5 18 10 W 0,0
06.12.2018 10:00:00 15,7 14,9 2 1 13 7 W 0,0
06.12.2018 09:00:00 10,9 10,3 6 3 9 5 ENE 0,0
06.12.2018 08:00:00 11,0 10,5 5 3 14 8 N 0,0
06.12.2018 07:00:00 12,9 12,6 9 5 18 10 ENE -
06.12.2018 06:00:00 10,0 9,7 3 2 9 5 NNE 0,0
06.12.2018 05:00:00 11,4 11,1 5 3 15 8 NE 0,0
06.12.2018 04:00:00 12,8 12,5 8 5 16 9 NE 0,0
06.12.2018 03:00:00 13,2 12,8 9 5 20 11 ENE 0,0
06.12.2018 02:00:00 13,5 13,2 13 7 31 17 ENE 0,0
06.12.2018 01:00:00 14,0 13,7 21 11 35 19 E -
06.12.2018 00:00:00 14,1 13,8 22 12 33 18 E 0,0
05.12.2018 23:00:00 14,3 13,9 22 12 32 18 E 0,0
05.12.2018 22:00:00 14,5 14,1 25 14 38 20 E 0,0
05.12.2018 21:00:00 14,7 14,4 21 11 32 17 E 0,0
05.12.2018 20:00:00 14,4 14,0 22 12 30 16 E 0,0
05.12.2018 19:00:00 14,7 14,4 18 10 40 21 E -
05.12.2018 18:00:00 15,2 14,5 21 11 31 17 E 0,0
05.12.2018 17:00:00 15,9 14,8 19 10 33 18 E 0,0
05.12.2018 16:00:00 16,3 15,2 24 13 39 21 E 0,0
05.12.2018 15:00:00 16,2 15,1 26 14 45 24 E 0,0
05.12.2018 14:00:00 16,4 14,9 29 16 48 26 E 0,0
05.12.2018 13:00:00 16,2 14,7 31 17 54 29 E -
05.12.2018 12:00:00 15,9 14,4 33 18 53 28 E 0,0
05.12.2018 11:00:00 15,4 13,9 34 18 54 29 E 0,0
05.12.2018 10:00:00 14,8 13,7 33 18 51 28 E 0,0
05.12.2018 09:00:00 14,1 13,4 32 17 51 27 E 0,0
05.12.2018 08:00:00 13,9 13,2 32 17 53 29 E 0,0
05.12.2018 07:00:00 13,8 13,1 33 18 55 30 E -
05.12.2018 06:00:00 13,8 13,2 31 17 53 28 E 0,0
05.12.2018 05:00:00 13,7 13,1 27 14 46 25 E 0,0
05.12.2018 04:00:00 13,6 13,3 24 13 45 24 E 0,0
05.12.2018 03:00:00 13,6 13,3 28 15 49 26 E 0,0
05.12.2018 02:00:00 13,8 13,5 35 19 54 29 E 0,0
05.12.2018 01:00:00 13,4 13,3 37 20 56 31 E -
05.12.2018 00:00:00 13,5 13,4 34 18 50 27 E 0,0
04.12.2018 23:00:00 14,0 13,9 27 14 43 23 E 0,0
04.12.2018 22:00:00 14,2 14,0 30 16 42 23 E 0,0
04.12.2018 21:00:00 14,4 14,2 29 16 43 23 E 0,0
04.12.2018 20:00:00 15,2 13,9 29 16 42 23 E 0,0
04.12.2018 19:00:00 15,6 12,7 27 15 38 21 E -
04.12.2018 18:00:00 15,6 14,1 21 12 37 20 E 0,0
04.12.2018 17:00:00 15,8 15,0 20 11 35 19 E 0,0
04.12.2018 16:00:00 16,5 15,3 25 13 36 20 E 0,0
04.12.2018 15:00:00 16,8 14,2 22 12 34 18 E 0,0
04.12.2018 14:00:00 17,4 14,5 19 11 29 16 E 0,0
04.12.2018 13:00:00 17,4 14,5 14 8 26 14 E -
04.12.2018 12:00:00 16,6 15,4 21 11 26 14 E 0,0
04.12.2018 11:00:00 16,5 15,9 16 9 24 13 E 0,0
04.12.2018 10:00:00 15,8 15,2 7 4 26 14 ESE 0,0

tt = temperature
td = dewpoint
ff = wind speed
fx = gusts
dd = wind direction
rr = precipitation

Next stations